sensor_id;sensor_type;location;lat;lon;timestamp;pressure;altitude;pressure_sealevel;temperature;humidity
59289;BME280;45056;47.602;9.886;2022-08-01T00:00:11;93172.56;;;23.25;43.89
59289;BME280;45056;47.602;9.886;2022-08-01T00:02:40;93176.56;;;23.29;43.13
59289;BME280;45056;47.602;9.886;2022-08-01T00:05:08;93176.47;;;23.35;42.18
59289;BME280;45056;47.602;9.886;2022-08-01T00:07:37;93177.72;;;23.40;42.27
59289;BME280;45056;47.602;9.886;2022-08-01T00:10:10;93181.72;;;23.44;42.14
59289;BME280;45056;47.602;9.886;2022-08-01T00:12:42;93186.22;;;23.47;41.94
59289;BME280;45056;47.602;9.886;2022-08-01T00:15:13;93179.63;;;23.51;42.02
59289;BME280;45056;47.602;9.886;2022-08-01T00:17:43;93181.34;;;23.54;41.92
59289;BME280;45056;47.602;9.886;2022-08-01T00:20:13;93191.19;;;23.55;41.90
59289;BME280;45056;47.602;9.886;2022-08-01T00:22:42;93189.91;;;23.56;42.19
59289;BME280;45056;47.602;9.886;2022-08-01T00:25:10;93187.13;;;23.56;42.27
59289;BME280;45056;47.602;9.886;2022-08-01T00:27:38;93194.19;;;23.57;42.40
59289;BME280;45056;47.602;9.886;2022-08-01T00:30:08;93192.91;;;23.58;42.25
59289;BME280;45056;47.602;9.886;2022-08-01T00:32:37;93194.97;;;23.57;42.40
59289;BME280;45056;47.602;9.886;2022-08-01T00:35:06;93192.91;;;23.58;42.39
59289;BME280;45056;47.602;9.886;2022-08-01T00:37:34;93195.69;;;23.58;42.47
59289;BME280;45056;47.602;9.886;2022-08-01T00:40:03;93190.13;;;23.58;42.56
59289;BME280;45056;47.602;9.886;2022-08-01T00:42:32;93190.69;;;23.56;42.81
59289;BME280;45056;47.602;9.886;2022-08-01T00:45:00;93192.69;;;23.56;42.92
59289;BME280;45056;47.602;9.886;2022-08-01T00:47:29;93189.69;;;23.54;42.84
59289;BME280;45056;47.602;9.886;2022-08-01T00:49:57;93199.28;;;23.53;42.83
59289;BME280;45056;47.602;9.886;2022-08-01T00:52:25;93186.44;;;23.49;43.07
59289;BME280;45056;47.602;9.886;2022-08-01T00:54:53;93194.00;;;23.49;42.98
59289;BME280;45056;47.602;9.886;2022-08-01T00:57:21;93192.28;;;23.46;43.20
59289;BME280;45056;47.602;9.886;2022-08-01T00:59:51;93192.81;;;23.44;43.41
59289;BME280;45056;47.602;9.886;2022-08-01T01:02:20;93191.81;;;23.42;43.66
59289;BME280;45056;47.602;9.886;2022-08-01T01:04:49;93193.84;;;23.41;43.39
59289;BME280;45056;47.602;9.886;2022-08-01T01:07:24;93193.59;;;23.39;43.56
59289;BME280;45056;47.602;9.886;2022-08-01T01:10:03;93200.41;;;23.38;43.66
59289;BME280;45056;47.602;9.886;2022-08-01T01:12:44;93191.34;;;23.38;43.63
59289;BME280;45056;47.602;9.886;2022-08-01T01:15:25;93188.34;;;23.36;43.87
59289;BME280;45056;47.602;9.886;2022-08-01T01:18:02;93200.50;;;23.32;44.04
59289;BME280;45056;47.602;9.886;2022-08-01T01:20:38;93195.22;;;23.29;44.44
59289;BME280;45056;47.602;9.886;2022-08-01T01:23:26;93204.59;;;23.26;45.13
59289;BME280;45056;47.602;9.886;2022-08-01T01:26:28;93199.28;;;23.22;46.03
59289;BME280;45056;47.602;9.886;2022-08-01T01:29:11;93204.59;;;23.20;46.29
59289;BME280;45056;47.602;9.886;2022-08-01T01:31:48;93193.56;;;23.14;46.49
59289;BME280;45056;47.602;9.886;2022-08-01T01:34:22;93192.34;;;23.10;46.33
59289;BME280;45056;47.602;9.886;2022-08-01T01:36:54;93195.38;;;23.06;46.39
59289;BME280;45056;47.602;9.886;2022-08-01T01:39:28;93198.47;;;23.02;46.92
59289;BME280;45056;47.602;9.886;2022-08-01T01:41:59;93197.75;;;22.96;46.98
59289;BME280;45056;47.602;9.886;2022-08-01T01:44:31;93189.47;;;22.90;47.19
59289;BME280;45056;47.602;9.886;2022-08-01T01:47:00;93199.56;;;22.88;47.27
59289;BME280;45056;47.602;9.886;2022-08-01T01:49:30;93197.59;;;22.83;47.22
59289;BME280;45056;47.602;9.886;2022-08-01T01:52:02;93196.88;;;22.76;47.39
59289;BME280;45056;47.602;9.886;2022-08-01T01:54:36;93188.84;;;22.73;47.62
59289;BME280;45056;47.602;9.886;2022-08-01T01:57:10;93189.88;;;22.70;47.65
59289;BME280;45056;47.602;9.886;2022-08-01T01:59:44;93194.94;;;22.66;47.83
59289;BME280;45056;47.602;9.886;2022-08-01T02:02:15;93196.47;;;22.61;47.86
59289;BME280;45056;47.602;9.886;2022-08-01T02:04:46;93199.53;;;22.57;48.17
59289;BME280;45056;47.602;9.886;2022-08-01T02:07:19;93198.84;;;22.51;48.51
59289;BME280;45056;47.602;9.886;2022-08-01T02:09:52;93195.59;;;22.47;48.21
59289;BME280;45056;47.602;9.886;2022-08-01T02:12:21;93199.09;;;22.42;47.74
59289;BME280;45056;47.602;9.886;2022-08-01T02:14:55;93196.59;;;22.38;47.69
59289;BME280;45056;47.602;9.886;2022-08-01T02:17:26;93198.38;;;22.36;47.93
59289;BME280;45056;47.602;9.886;2022-08-01T02:19:56;93194.63;;;22.33;48.17
59289;BME280;45056;47.602;9.886;2022-08-01T02:22:29;93197.91;;;22.31;48.46
59289;BME280;45056;47.602;9.886;2022-08-01T02:25:05;93193.38;;;22.28;48.56
59289;BME280;45056;47.602;9.886;2022-08-01T02:27:44;93194.66;;;22.27;49.09
59289;BME280;45056;47.602;9.886;2022-08-01T02:30:19;93200.19;;;22.27;49.34
59289;BME280;45056;47.602;9.886;2022-08-01T02:32:51;93202.47;;;22.23;48.80
59289;BME280;45056;47.602;9.886;2022-08-01T02:35:38;93192.44;;;22.20;48.66
59289;BME280;45056;47.602;9.886;2022-08-01T02:38:11;93192.94;;;22.18;48.23
59289;BME280;45056;47.602;9.886;2022-08-01T02:40:45;93192.69;;;22.16;48.43
59289;BME280;45056;47.602;9.886;2022-08-01T02:43:20;93200.00;;;22.14;48.91
59289;BME280;45056;47.602;9.886;2022-08-01T02:45:55;93199.75;;;22.12;49.71
59289;BME280;45056;47.602;9.886;2022-08-01T02:48:30;93196.50;;;22.08;49.87
59289;BME280;45056;47.602;9.886;2022-08-01T02:51:04;93192.50;;;22.03;50.23
59289;BME280;45056;47.602;9.886;2022-08-01T02:53:38;93190.50;;;21.98;50.69
59289;BME280;45056;47.602;9.886;2022-08-01T02:56:11;93193.56;;;21.94;50.99
59289;BME280;45056;47.602;9.886;2022-08-01T02:58:42;93191.03;;;21.90;50.73
59289;BME280;45056;47.602;9.886;2022-08-01T03:01:16;93188.03;;;21.88;51.27
59289;BME280;45056;47.602;9.886;2022-08-01T03:03:46;93194.59;;;21.85;51.47
59289;BME280;45056;47.602;9.886;2022-08-01T03:06:17;93197.09;;;21.83;51.61
59289;BME280;45056;47.602;9.886;2022-08-01T03:08:48;93190.56;;;21.81;51.99
59289;BME280;45056;47.602;9.886;2022-08-01T03:11:18;93196.38;;;21.77;52.17
59289;BME280;45056;47.602;9.886;2022-08-01T03:13:50;93190.84;;;21.71;52.17
59289;BME280;45056;47.602;9.886;2022-08-01T03:16:24;93190.88;;;21.66;52.50
59289;BME280;45056;47.602;9.886;2022-08-01T03:18:56;93194.63;;;21.62;52.66
59289;BME280;45056;47.602;9.886;2022-08-01T03:21:28;93190.88;;;21.60;52.62
59289;BME280;45056;47.602;9.886;2022-08-01T03:24:00;93190.38;;;21.56;52.50
59289;BME280;45056;47.602;9.886;2022-08-01T03:26:33;93196.16;;;21.52;52.55
59289;BME280;45056;47.602;9.886;2022-08-01T03:29:05;93190.16;;;21.48;52.65
59289;BME280;45056;47.602;9.886;2022-08-01T03:31:37;93193.69;;;21.43;52.51
59289;BME280;45056;47.602;9.886;2022-08-01T03:34:09;93195.19;;;21.38;52.57
59289;BME280;45056;47.602;9.886;2022-08-01T03:36:43;93195.97;;;21.33;52.85
59289;BME280;45056;47.602;9.886;2022-08-01T03:39:17;93197.47;;;21.28;53.07
59289;BME280;45056;47.602;9.886;2022-08-01T03:41:55;93205.28;;;21.24;53.30
59289;BME280;45056;47.602;9.886;2022-08-01T03:44:33;93207.06;;;21.22;53.20
59289;BME280;45056;47.602;9.886;2022-08-01T03:47:09;93204.00;;;21.19;53.14
59289;BME280;45056;47.602;9.886;2022-08-01T03:49:42;93202.25;;;21.16;53.30
59289;BME280;45056;47.602;9.886;2022-08-01T03:52:13;93204.78;;;21.14;53.40
59289;BME280;45056;47.602;9.886;2022-08-01T03:54:46;93212.84;;;21.12;53.22
59289;BME280;45056;47.602;9.886;2022-08-01T03:57:18;93203.53;;;21.10;53.55
59289;BME280;45056;47.602;9.886;2022-08-01T03:59:48;93205.28;;;21.07;53.62
59289;BME280;45056;47.602;9.886;2022-08-01T04:02:20;93209.81;;;21.04;53.49
59289;BME280;45056;47.602;9.886;2022-08-01T04:04:50;93207.56;;;21.03;53.81
59289;BME280;45056;47.602;9.886;2022-08-01T04:07:23;93211.34;;;21.00;54.07
59289;BME280;45056;47.602;9.886;2022-08-01T04:09:53;93208.06;;;20.96;54.27
59289;BME280;45056;47.602;9.886;2022-08-01T04:12:21;93213.34;;;20.94;54.20
59289;BME280;45056;47.602;9.886;2022-08-01T04:14:49;93211.09;;;20.92;54.34
59289;BME280;45056;47.602;9.886;2022-08-01T04:17:19;93210.06;;;20.89;54.37
59289;BME280;45056;47.602;9.886;2022-08-01T04:19:47;93213.34;;;20.88;54.47
59289;BME280;45056;47.602;9.886;2022-08-01T04:22:15;93206.31;;;20.87;54.31
59289;BME280;45056;47.602;9.886;2022-08-01T04:24:47;93210.81;;;20.84;54.38
59289;BME280;45056;47.602;9.886;2022-08-01T04:27:22;93211.59;;;20.85;54.61
59289;BME280;45056;47.602;9.886;2022-08-01T04:29:56;93217.84;;;20.85;54.49
59289;BME280;45056;47.602;9.886;2022-08-01T04:32:31;93216.59;;;20.86;54.64
59289;BME280;45056;47.602;9.886;2022-08-01T04:35:06;93217.63;;;20.89;54.38
59289;BME280;45056;47.602;9.886;2022-08-01T04:37:38;93216.34;;;20.84;54.30
59289;BME280;45056;47.602;9.886;2022-08-01T04:40:09;93222.41;;;20.83;54.53
59289;BME280;45056;47.602;9.886;2022-08-01T04:42:38;93217.34;;;20.81;54.75
59289;BME280;45056;47.602;9.886;2022-08-01T04:45:08;93220.91;;;20.82;55.01
59289;BME280;45056;47.602;9.886;2022-08-01T04:47:40;93216.63;;;20.81;55.23
59289;BME280;45056;47.602;9.886;2022-08-01T04:50:10;93222.88;;;20.81;55.24
59289;BME280;45056;47.602;9.886;2022-08-01T04:52:39;93227.41;;;20.84;55.19
59289;BME280;45056;47.602;9.886;2022-08-01T04:55:09;93222.13;;;20.86;55.23
59289;BME280;45056;47.602;9.886;2022-08-01T04:57:40;93225.91;;;20.89;55.18
59289;BME280;45056;47.602;9.886;2022-08-01T05:00:12;93228.44;;;20.93;55.15
59289;BME280;45056;47.602;9.886;2022-08-01T05:02:44;93224.66;;;20.96;55.09
59289;BME280;45056;47.602;9.886;2022-08-01T05:05:13;93229.69;;;21.03;54.72
59289;BME280;45056;47.602;9.886;2022-08-01T05:07:41;93224.16;;;21.09;54.57
59289;BME280;45056;47.602;9.886;2022-08-01T05:10:09;93230.19;;;21.13;54.59
59289;BME280;45056;47.602;9.886;2022-08-01T05:12:37;93226.41;;;21.16;54.71
59289;BME280;45056;47.602;9.886;2022-08-01T05:15:06;93222.66;;;21.19;54.53
59289;BME280;45056;47.602;9.886;2022-08-01T05:17:35;93217.34;;;21.21;54.35
59289;BME280;45056;47.602;9.886;2022-08-01T05:20:05;93221.38;;;21.37;54.83
59289;BME280;45056;47.602;9.886;2022-08-01T05:22:33;93230.97;;;22.18;52.59
59289;BME280;45056;47.602;9.886;2022-08-01T05:25:02;93232.34;;;22.42;51.66
59289;BME280;45056;47.602;9.886;2022-08-01T05:27:31;93233.38;;;22.39;51.94
59289;BME280;45056;47.602;9.886;2022-08-01T05:30:05;93230.53;;;23.59;50.03
59289;BME280;45056;47.602;9.886;2022-08-01T05:32:35;93229.19;;;26.11;44.88
59289;BME280;45056;47.602;9.886;2022-08-01T05:35:07;93241.63;;;28.57;39.97
59289;BME280;45056;47.602;9.886;2022-08-01T05:37:36;93236.22;;;29.97;36.59
59289;BME280;45056;47.602;9.886;2022-08-01T05:40:05;93238.59;;;30.40;35.35
59289;BME280;45056;47.602;9.886;2022-08-01T05:42:33;93237.91;;;29.92;35.63
59289;BME280;45056;47.602;9.886;2022-08-01T05:45:01;93247.09;;;29.46;35.99
59289;BME280;45056;47.602;9.886;2022-08-01T05:47:29;93241.66;;;29.87;34.48
59289;BME280;45056;47.602;9.886;2022-08-01T05:49:57;93239.44;;;30.58;32.81
59289;BME280;45056;47.602;9.886;2022-08-01T05:52:27;93236.56;;;31.47;31.16
59289;BME280;45056;47.602;9.886;2022-08-01T05:54:55;93241.78;;;31.76;29.86
59289;BME280;45056;47.602;9.886;2022-08-01T05:57:23;93241.84;;;31.10;30.57
59289;BME280;45056;47.602;9.886;2022-08-01T05:59:51;93234.13;;;30.21;32.03
59289;BME280;45056;47.602;9.886;2022-08-01T06:02:19;93235.47;;;29.27;33.64
59289;BME280;45056;47.602;9.886;2022-08-01T06:04:47;93246.78;;;28.45;34.91
59289;BME280;45056;47.602;9.886;2022-08-01T06:07:15;93236.84;;;27.71;36.25
59289;BME280;45056;47.602;9.886;2022-08-01T06:09:44;93241.09;;;27.08;37.39
59289;BME280;45056;47.602;9.886;2022-08-01T06:12:12;93239.97;;;26.55;38.47
59289;BME280;45056;47.602;9.886;2022-08-01T06:14:40;93239.56;;;26.11;39.52
59289;BME280;45056;47.602;9.886;2022-08-01T06:17:08;93233.91;;;25.76;40.24
59289;BME280;45056;47.602;9.886;2022-08-01T06:19:36;93243.78;;;25.44;41.15
59289;BME280;45056;47.602;9.886;2022-08-01T06:22:04;93248.31;;;25.15;41.74
59289;BME280;45056;47.602;9.886;2022-08-01T06:24:32;93245.13;;;24.91;42.31
59289;BME280;45056;47.602;9.886;2022-08-01T06:27:02;93257.84;;;24.68;42.70
59289;BME280;45056;47.602;9.886;2022-08-01T06:29:30;93248.75;;;24.48;43.24
59289;BME280;45056;47.602;9.886;2022-08-01T06:31:59;93250.97;;;24.30;43.60
59289;BME280;45056;47.602;9.886;2022-08-01T06:34:27;93247.34;;;24.16;44.01
59289;BME280;45056;47.602;9.886;2022-08-01T06:36:55;93247.50;;;24.05;44.34
59289;BME280;45056;47.602;9.886;2022-08-01T06:39:22;93245.03;;;23.96;44.61
59289;BME280;45056;47.602;9.886;2022-08-01T06:41:50;93242.84;;;23.88;44.71
59289;BME280;45056;47.602;9.886;2022-08-01T06:44:20;93243.38;;;23.87;44.67
59289;BME280;45056;47.602;9.886;2022-08-01T06:46:48;93237.00;;;23.92;44.50
59289;BME280;45056;47.602;9.886;2022-08-01T06:49:16;93240.38;;;24.10;44.32
59289;BME280;45056;47.602;9.886;2022-08-01T06:51:44;93247.97;;;24.47;44.21
59289;BME280;45056;47.602;9.886;2022-08-01T06:54:12;93245.28;;;24.61;44.01
59289;BME280;45056;47.602;9.886;2022-08-01T06:56:40;93242.78;;;24.57;43.72
59289;BME280;45056;47.602;9.886;2022-08-01T06:59:08;93240.63;;;24.50;43.80
59289;BME280;45056;47.602;9.886;2022-08-01T07:01:38;93246.00;;;24.61;43.38
59289;BME280;45056;47.602;9.886;2022-08-01T07:04:06;93241.88;;;24.68;43.77
59289;BME280;45056;47.602;9.886;2022-08-01T07:06:34;93238.38;;;24.68;43.46
59289;BME280;45056;47.602;9.886;2022-08-01T07:09:03;93240.47;;;24.61;43.76
59289;BME280;45056;47.602;9.886;2022-08-01T07:11:31;93239.78;;;24.55;43.95
59289;BME280;45056;47.602;9.886;2022-08-01T07:13:59;93238.59;;;24.51;44.15
59289;BME280;45056;47.602;9.886;2022-08-01T07:16:27;93234.59;;;24.46;44.57
59289;BME280;45056;47.602;9.886;2022-08-01T07:18:56;93234.69;;;24.40;44.60
59289;BME280;45056;47.602;9.886;2022-08-01T07:21:24;93228.66;;;24.36;44.02
59289;BME280;45056;47.602;9.886;2022-08-01T07:23:52;93242.13;;;24.32;43.94
59289;BME280;45056;47.602;9.886;2022-08-01T07:26:20;93236.34;;;24.30;44.04
59289;BME280;45056;47.602;9.886;2022-08-01T07:28:48;93234.06;;;24.28;43.83
59289;BME280;45056;47.602;9.886;2022-08-01T07:31:16;93232.34;;;24.25;43.15
59289;BME280;45056;47.602;9.886;2022-08-01T07:33:44;93238.94;;;24.22;42.92
59289;BME280;45056;47.602;9.886;2022-08-01T07:36:14;93239.25;;;24.18;42.73
59289;BME280;45056;47.602;9.886;2022-08-01T07:38:43;93231.22;;;24.15;42.65
59289;BME280;45056;47.602;9.886;2022-08-01T07:41:11;93229.69;;;24.14;42.74
59289;BME280;45056;47.602;9.886;2022-08-01T07:43:39;93229.47;;;24.12;42.81
59289;BME280;45056;47.602;9.886;2022-08-01T07:46:07;93232.03;;;24.10;42.62
59289;BME280;45056;47.602;9.886;2022-08-01T07:48:35;93234.28;;;24.11;43.09
59289;BME280;45056;47.602;9.886;2022-08-01T07:51:03;93237.06;;;24.11;42.85
59289;BME280;45056;47.602;9.886;2022-08-01T07:53:33;93230.53;;;24.09;42.47
59289;BME280;45056;47.602;9.886;2022-08-01T07:56:01;93227.53;;;24.06;42.38
59289;BME280;45056;47.602;9.886;2022-08-01T07:58:31;93227.53;;;24.06;42.64
59289;BME280;45056;47.602;9.886;2022-08-01T08:00:59;93230.31;;;24.06;42.72
59289;BME280;45056;47.602;9.886;2022-08-01T08:03:27;93226.47;;;24.10;42.50
59289;BME280;45056;47.602;9.886;2022-08-01T08:05:55;93230.97;;;24.13;42.27
59289;BME280;45056;47.602;9.886;2022-08-01T08:08:23;93233.97;;;24.15;42.30
59289;BME280;45056;47.602;9.886;2022-08-01T08:10:53;93235.72;;;24.18;42.47
59289;BME280;45056;47.602;9.886;2022-08-01T08:13:21;93232.94;;;24.18;42.19
59289;BME280;45056;47.602;9.886;2022-08-01T08:15:49;93240.50;;;24.17;41.70
59289;BME280;45056;47.602;9.886;2022-08-01T08:18:17;93232.94;;;24.18;41.96
59289;BME280;45056;47.602;9.886;2022-08-01T08:20:45;93235.94;;;24.20;42.45
59289;BME280;45056;47.602;9.886;2022-08-01T08:23:13;93231.88;;;24.21;43.31
59289;BME280;45056;47.602;9.886;2022-08-01T08:26:00;93237.91;;;24.25;43.92
59289;BME280;45056;47.602;9.886;2022-08-01T08:28:28;93225.94;;;24.30;43.98
59289;BME280;45056;47.602;9.886;2022-08-01T08:30:56;93227.38;;;24.37;44.39
59289;BME280;45056;47.602;9.886;2022-08-01T08:33:24;93231.91;;;24.40;44.14
59289;BME280;45056;47.602;9.886;2022-08-01T08:35:52;93238.34;;;24.48;43.49
59289;BME280;45056;47.602;9.886;2022-08-01T08:38:21;93229.72;;;24.52;43.21
59289;BME280;45056;47.602;9.886;2022-08-01T08:40:49;93224.38;;;24.54;43.05
59289;BME280;45056;47.602;9.886;2022-08-01T08:43:18;93221.09;;;24.56;42.82
59289;BME280;45056;47.602;9.886;2022-08-01T08:45:48;93219.25;;;24.58;43.04
59289;BME280;45056;47.602;9.886;2022-08-01T08:48:17;93226.31;;;24.59;43.64
59289;BME280;45056;47.602;9.886;2022-08-01T08:50:48;93217.25;;;24.59;43.51
59289;BME280;45056;47.602;9.886;2022-08-01T08:53:18;93217.75;;;24.57;43.04
59289;BME280;45056;47.602;9.886;2022-08-01T08:55:47;93217.75;;;24.57;43.10
59289;BME280;45056;47.602;9.886;2022-08-01T08:58:19;93218.31;;;24.56;43.41
59289;BME280;45056;47.602;9.886;2022-08-01T09:00:48;93220.31;;;24.55;43.68
59289;BME280;45056;47.602;9.886;2022-08-01T09:03:17;93220.31;;;24.55;43.17
59289;BME280;45056;47.602;9.886;2022-08-01T09:05:45;93216.25;;;24.56;43.11
59289;BME280;45056;47.602;9.886;2022-08-01T09:08:13;93217.53;;;24.55;43.19
59289;BME280;45056;47.602;9.886;2022-08-01T09:10:41;93217.03;;;24.57;43.15
59289;BME280;45056;47.602;9.886;2022-08-01T09:13:12;93213.69;;;24.58;43.11
59289;BME280;45056;47.602;9.886;2022-08-01T09:15:45;93218.75;;;24.60;43.36
59289;BME280;45056;47.602;9.886;2022-08-01T09:18:29;93211.13;;;24.60;43.60
59289;BME280;45056;47.602;9.886;2022-08-01T09:21:15;93213.41;;;24.62;43.46
59289;BME280;45056;47.602;9.886;2022-08-01T09:23:47;93216.91;;;24.62;43.42
59289;BME280;45056;47.602;9.886;2022-08-01T09:26:19;93215.91;;;24.66;43.48
59289;BME280;45056;47.602;9.886;2022-08-01T09:28:49;93214.06;;;24.68;43.62
59289;BME280;45056;47.602;9.886;2022-08-01T09:31:19;93218.06;;;24.73;43.80
59289;BME280;45056;47.602;9.886;2022-08-01T09:33:53;93212.97;;;24.77;43.65
59289;BME280;45056;47.602;9.886;2022-08-01T09:36:24;93215.97;;;24.79;43.55
59289;BME280;45056;47.602;9.886;2022-08-01T09:38:54;93212.66;;;24.81;43.20
59289;BME280;45056;47.602;9.886;2022-08-01T09:41:30;93211.06;;;24.85;43.34
59289;BME280;45056;47.602;9.886;2022-08-01T09:43:58;93218.34;;;24.88;43.49
59289;BME280;45056;47.602;9.886;2022-08-01T09:46:28;93210.78;;;24.89;43.57
59289;BME280;45056;47.602;9.886;2022-08-01T09:48:58;93225.41;;;24.89;43.48
59289;BME280;45056;47.602;9.886;2022-08-01T09:51:28;93219.84;;;24.89;43.28
59289;BME280;45056;47.602;9.886;2022-08-01T09:53:59;93219.84;;;24.89;42.92
59289;BME280;45056;47.602;9.886;2022-08-01T09:56:36;93218.56;;;24.90;42.99
59289;BME280;45056;47.602;9.886;2022-08-01T09:59:06;93216.56;;;24.91;43.03
59289;BME280;45056;47.602;9.886;2022-08-01T10:01:46;93208.94;;;24.91;43.04
59289;BME280;45056;47.602;9.886;2022-08-01T10:04:17;93198.03;;;24.93;43.04
59289;BME280;45056;47.602;9.886;2022-08-01T10:06:49;93213.69;;;24.97;43.43
59289;BME280;45056;47.602;9.886;2022-08-01T10:09:28;93200.00;;;24.99;43.33
59289;BME280;45056;47.602;9.886;2022-08-01T10:11:59;93200.44;;;25.03;43.22
59289;BME280;45056;47.602;9.886;2022-08-01T10:14:29;93201.59;;;25.07;43.26
59289;BME280;45056;47.602;9.886;2022-08-01T10:17:00;93199.50;;;25.14;43.81
59289;BME280;45056;47.602;9.886;2022-08-01T10:19:30;93196.81;;;25.21;43.84
59289;BME280;45056;47.602;9.886;2022-08-01T10:22:00;93190.94;;;25.25;43.78
59289;BME280;45056;47.602;9.886;2022-08-01T10:24:30;93189.38;;;25.30;43.29
59289;BME280;45056;47.602;9.886;2022-08-01T10:27:02;93182.19;;;25.34;42.52
59289;BME280;45056;47.602;9.886;2022-08-01T10:29:35;93180.59;;;25.39;42.43
59289;BME280;45056;47.602;9.886;2022-08-01T10:32:06;93184.31;;;25.42;42.10
59289;BME280;45056;47.602;9.886;2022-08-01T10:34:36;93178.44;;;25.45;42.10
59289;BME280;45056;47.602;9.886;2022-08-01T10:37:05;93189.84;;;25.47;41.87
59289;BME280;45056;47.602;9.886;2022-08-01T10:39:34;93176.34;;;25.52;41.74
59289;BME280;45056;47.602;9.886;2022-08-01T10:42:04;93179.53;;;25.56;41.70
59289;BME280;45056;47.602;9.886;2022-08-01T10:44:34;93179.75;;;25.58;41.70
59289;BME280;45056;47.602;9.886;2022-08-01T10:47:11;93177.44;;;25.62;41.16
59289;BME280;45056;47.602;9.886;2022-08-01T10:49:47;93186.63;;;25.70;41.20
59289;BME280;45056;47.602;9.886;2022-08-01T10:52:18;93182.69;;;25.79;41.73
59289;BME280;45056;47.602;9.886;2022-08-01T10:54:47;93180.44;;;25.91;40.69
59289;BME280;45056;47.602;9.886;2022-08-01T10:57:16;93175.91;;;26.01;39.91
59289;BME280;45056;47.602;9.886;2022-08-01T10:59:49;93173.84;;;26.15;38.60
59289;BME280;45056;47.602;9.886;2022-08-01T11:02:28;93173.84;;;26.29;37.60
59289;BME280;45056;47.602;9.886;2022-08-01T11:05:01;93177.13;;;26.41;37.50
59289;BME280;45056;47.602;9.886;2022-08-01T11:07:43;93172.81;;;26.53;37.88
59289;BME280;45056;47.602;9.886;2022-08-01T11:10:22;93167.91;;;26.67;37.79
59289;BME280;45056;47.602;9.886;2022-08-01T11:12:55;93169.19;;;26.79;37.72
59289;BME280;45056;47.602;9.886;2022-08-01T11:15:24;93166.91;;;26.91;36.11
59289;BME280;45056;47.602;9.886;2022-08-01T11:17:55;93168.88;;;27.04;35.84
59289;BME280;45056;47.602;9.886;2022-08-01T11:20:25;93168.06;;;27.17;35.75
59289;BME280;45056;47.602;9.886;2022-08-01T11:23:24;93166.06;;;27.26;35.94
59289;BME280;45056;47.602;9.886;2022-08-01T11:26:14;93168.03;;;27.39;37.13
59289;BME280;45056;47.602;9.886;2022-08-01T11:28:45;93164.72;;;27.48;36.59
59289;BME280;45056;47.602;9.886;2022-08-01T11:31:34;93159.44;;;27.58;35.49
59289;BME280;45056;47.602;9.886;2022-08-01T11:34:04;93164.69;;;27.69;34.92
59289;BME280;45056;47.602;9.886;2022-08-01T11:36:32;93161.19;;;27.76;34.07
59289;BME280;45056;47.602;9.886;2022-08-01T11:39:14;93168.72;;;27.82;34.82
59289;BME280;45056;47.602;9.886;2022-08-01T11:41:48;93161.44;;;27.86;34.74
59289;BME280;45056;47.602;9.886;2022-08-01T11:44:19;93168.19;;;27.91;34.98
59289;BME280;45056;47.602;9.886;2022-08-01T11:46:57;93159.09;;;27.98;35.72
59289;BME280;45056;47.602;9.886;2022-08-01T11:49:46;93157.47;;;28.11;35.54
59289;BME280;45056;47.602;9.886;2022-08-01T11:52:26;93152.69;;;28.19;35.21
59289;BME280;45056;47.602;9.886;2022-08-01T11:54:57;93154.03;;;28.26;34.70
59289;BME280;45056;47.602;9.886;2022-08-01T11:57:32;93146.94;;;28.32;34.88
59289;BME280;45056;47.602;9.886;2022-08-01T12:00:09;93158.53;;;28.36;34.91
59289;BME280;45056;47.602;9.886;2022-08-01T12:02:39;93146.97;;;28.40;34.34
59289;BME280;45056;47.602;9.886;2022-08-01T12:05:10;93146.63;;;28.44;34.46
59289;BME280;45056;47.602;9.886;2022-08-01T12:07:40;93150.72;;;28.50;34.38
59289;BME280;45056;47.602;9.886;2022-08-01T12:10:12;93147.38;;;28.52;33.27
59289;BME280;45056;47.602;9.886;2022-08-01T12:12:44;93151.69;;;28.53;32.54
59289;BME280;45056;47.602;9.886;2022-08-01T12:15:15;93139.19;;;28.54;32.61
59289;BME280;45056;47.602;9.886;2022-08-01T12:17:46;93144.78;;;28.54;31.60
59289;BME280;45056;47.602;9.886;2022-08-01T12:20:21;93142.16;;;28.56;32.06
59289;BME280;45056;47.602;9.886;2022-08-01T12:22:53;93140.88;;;28.57;33.27
59289;BME280;45056;47.602;9.886;2022-08-01T12:25:22;93139.00;;;28.60;33.36
59289;BME280;45056;47.602;9.886;2022-08-01T12:27:52;93134.91;;;28.61;32.66
59289;BME280;45056;47.602;9.886;2022-08-01T12:30:21;93145.38;;;28.68;33.12
59289;BME280;45056;47.602;9.886;2022-08-01T12:32:51;93129.13;;;28.74;33.86
59289;BME280;45056;47.602;9.886;2022-08-01T12:35:23;93130.50;;;28.81;33.43
59289;BME280;45056;47.602;9.886;2022-08-01T12:37:55;93126.56;;;28.84;33.46
59289;BME280;45056;47.602;9.886;2022-08-01T12:40:27;93127.53;;;28.87;33.80
59289;BME280;45056;47.602;9.886;2022-08-01T12:42:58;93125.28;;;28.93;32.99
59289;BME280;45056;47.602;9.886;2022-08-01T12:45:33;93120.59;;;28.96;32.16
59289;BME280;45056;47.602;9.886;2022-08-01T12:48:08;93115.19;;;28.98;32.02
59289;BME280;45056;47.602;9.886;2022-08-01T12:50:42;93127.88;;;28.99;31.66
59289;BME280;45056;47.602;9.886;2022-08-01T12:53:13;93115.38;;;29.00;32.22
59289;BME280;45056;47.602;9.886;2022-08-01T12:55:46;93114.06;;;29.01;32.87
59289;BME280;45056;47.602;9.886;2022-08-01T12:58:17;93112.97;;;29.04;32.74
59289;BME280;45056;47.602;9.886;2022-08-01T13:00:48;93116.69;;;29.06;32.80
59289;BME280;45056;47.602;9.886;2022-08-01T13:03:29;93115.56;;;29.09;32.85
59289;BME280;45056;47.602;9.886;2022-08-01T13:05:58;93106.78;;;29.13;32.12
59289;BME280;45056;47.602;9.886;2022-08-01T13:08:31;93111.28;;;29.16;31.70
59289;BME280;45056;47.602;9.886;2022-08-01T13:11:01;93104.38;;;29.17;32.39
59289;BME280;45056;47.602;9.886;2022-08-01T13:13:38;93096.31;;;29.21;32.34
59289;BME280;45056;47.602;9.886;2022-08-01T13:16:09;93091.47;;;29.22;32.60
59289;BME280;45056;47.602;9.886;2022-08-01T13:18:38;93092.41;;;29.25;31.27
59289;BME280;45056;47.602;9.886;2022-08-01T13:21:09;93085.50;;;29.26;31.28